createdAt,value
2023-04-11T00:00:18.358Z,12
2023-04-11T00:05:16.238Z,14
2023-04-11T00:10:16.285Z,13
2023-04-11T00:15:16.348Z,13
2023-04-11T00:20:16.269Z,13
2023-04-11T00:25:16.235Z,13
2023-04-11T00:30:16.355Z,13
2023-04-11T00:35:16.564Z,12
2023-04-11T00:40:16.354Z,12
2023-04-11T00:45:16.769Z,11
2023-04-11T00:50:16.298Z,12
2023-04-11T00:55:16.335Z,12
2023-04-11T01:00:16.728Z,11
2023-04-11T01:05:16.767Z,12
2023-04-11T01:10:16.358Z,12
2023-04-11T01:15:16.498Z,13
2023-04-11T01:20:16.604Z,14
2023-04-11T01:25:16.486Z,14
2023-04-11T01:30:16.485Z,14
2023-04-11T01:35:16.468Z,14
2023-04-11T01:40:16.619Z,14
2023-04-11T01:45:16.907Z,12
2023-04-11T01:50:16.434Z,12
2023-04-11T01:55:16.679Z,11
2023-04-11T02:00:16.712Z,11
2023-04-11T02:05:16.573Z,12
2023-04-11T02:10:16.572Z,13
2023-04-11T02:15:16.903Z,13
2023-04-11T02:20:16.517Z,13
2023-04-11T02:25:16.662Z,13
2023-04-11T02:30:16.981Z,13
2023-04-11T02:35:16.665Z,14
2023-04-11T02:40:16.569Z,14
2023-04-11T02:45:16.957Z,14
2023-04-11T02:50:16.628Z,15
2023-04-11T02:55:17.033Z,14
2023-04-11T03:00:16.675Z,13
2023-04-11T03:05:16.859Z,14
2023-04-11T03:10:16.628Z,14
2023-04-11T03:15:16.942Z,13
2023-04-11T03:20:16.771Z,13
2023-04-11T03:25:16.831Z,14
2023-04-11T03:30:16.993Z,12
2023-04-11T03:35:16.742Z,13
2023-04-11T03:40:16.779Z,12
2023-04-11T03:45:16.914Z,14
2023-04-11T03:50:16.749Z,14
2023-04-11T03:55:16.833Z,14
2023-04-11T04:00:17.862Z,13
2023-04-11T04:05:18.210Z,14
2023-04-11T04:10:17.943Z,15
2023-04-11T04:15:17.907Z,16
2023-04-11T04:20:17.971Z,17
2023-04-11T04:25:18.012Z,17
2023-04-11T04:30:18.051Z,16
2023-04-11T04:35:18.042Z,14
2023-04-11T04:40:17.952Z,13
2023-04-11T04:45:18.576Z,13
2023-04-11T04:50:17.929Z,14
2023-04-11T04:55:18.054Z,14
2023-04-11T05:00:17.977Z,14
2023-04-11T05:05:18.115Z,15
2023-04-11T05:10:18.031Z,14
2023-04-11T05:15:18.644Z,15
2023-04-11T05:20:18.100Z,13
2023-04-11T05:25:18.275Z,14
2023-04-11T05:30:18.024Z,15
2023-04-11T05:35:18.369Z,15
2023-04-11T05:40:18.094Z,15
2023-04-11T05:45:18.642Z,16
2023-04-11T05:50:17.936Z,17
2023-04-11T05:55:18.437Z,16
2023-04-11T06:00:18.196Z,16
2023-04-11T06:05:18.285Z,15
2023-04-11T06:10:18.150Z,15
2023-04-11T06:15:18.424Z,15
2023-04-11T06:20:18.152Z,15
2023-04-11T06:25:18.569Z,14
2023-04-11T06:30:18.665Z,14
2023-04-11T06:35:18.296Z,14
2023-04-11T06:40:18.393Z,14
2023-04-11T06:45:16.310Z,14
2023-04-11T06:50:16.175Z,15
2023-04-11T06:55:16.247Z,14
2023-04-11T07:00:16.302Z,15
2023-04-11T07:05:16.528Z,14
2023-04-11T07:10:16.234Z,14
2023-04-11T07:15:16.414Z,15
2023-04-11T07:20:16.270Z,15
2023-04-11T07:25:16.325Z,15
2023-04-11T07:30:16.312Z,14
2023-04-11T07:35:16.727Z,15
2023-04-11T07:40:17.941Z,15
2023-04-11T07:45:16.520Z,15
2023-04-11T07:50:16.370Z,14
2023-04-11T07:55:16.441Z,15
2023-04-11T08:00:16.403Z,13
2023-04-11T08:05:16.570Z,14
2023-04-11T08:10:16.391Z,14
2023-04-11T08:15:16.809Z,13
2023-04-11T08:20:16.412Z,13
2023-04-11T08:25:16.571Z,12
2023-04-11T08:30:16.601Z,13
2023-04-11T08:35:16.508Z,13
2023-04-11T08:40:16.938Z,12
2023-04-11T08:45:16.874Z,11
2023-04-11T08:50:16.748Z,10
2023-04-11T08:55:16.584Z,12
2023-04-11T09:00:16.596Z,12
2023-04-11T09:05:16.550Z,12
2023-04-11T09:10:16.512Z,11
2023-04-11T09:15:16.844Z,12
2023-04-11T09:20:16.533Z,13
2023-04-11T09:25:16.768Z,14
2023-04-11T09:30:16.798Z,13
2023-04-11T09:35:16.650Z,13
2023-04-11T09:40:16.779Z,14
2023-04-11T09:45:17.119Z,13
2023-04-11T09:50:16.676Z,13
2023-04-11T09:55:16.967Z,13
2023-04-11T10:00:17.030Z,13
2023-04-11T10:05:16.759Z,13
2023-04-11T10:10:16.773Z,12
2023-04-11T10:15:16.858Z,11
2023-04-11T10:20:16.831Z,11
2023-04-11T10:25:16.816Z,11
2023-04-11T10:30:16.854Z,10
2023-04-11T10:35:17.141Z,9
2023-04-11T10:40:16.769Z,8
2023-04-11T10:45:16.976Z,9
2023-04-11T10:50:16.937Z,9
2023-04-11T10:55:16.874Z,9
2023-04-11T11:00:17.047Z,9
2023-04-11T11:05:17.197Z,9
2023-04-11T11:10:16.945Z,9
2023-04-11T11:15:17.027Z,10
2023-04-11T11:20:16.785Z,10
2023-04-11T11:25:17.043Z,10
2023-04-11T11:30:17.316Z,9
2023-04-11T11:35:17.012Z,10
2023-04-11T11:40:16.945Z,9
2023-04-11T11:45:17.694Z,10
2023-04-11T11:50:16.905Z,11
2023-04-11T11:55:17.194Z,12
2023-04-11T12:00:17.165Z,12
2023-04-11T12:05:17.099Z,12
2023-04-11T12:10:17.042Z,10
2023-04-11T12:15:17.901Z,10
2023-04-11T12:20:17.164Z,12
2023-04-11T12:25:17.066Z,13
2023-04-11T12:30:17.164Z,11
2023-04-11T12:35:17.234Z,11
2023-04-11T12:40:17.097Z,14
2023-04-11T12:45:17.318Z,15
2023-04-11T12:50:17.139Z,12
2023-04-11T12:55:17.404Z,13
2023-04-11T13:00:17.231Z,13
2023-04-11T13:05:17.709Z,13
2023-04-11T13:10:17.149Z,14
2023-04-11T13:15:17.388Z,13
2023-04-11T13:20:17.190Z,12
2023-04-11T13:25:17.586Z,13
2023-04-11T13:30:17.601Z,12
2023-04-11T13:35:17.424Z,11
2023-04-11T13:40:17.244Z,13
2023-04-11T13:45:17.426Z,12
2023-04-11T13:50:17.284Z,13
2023-04-11T13:55:17.333Z,14
2023-04-11T14:00:17.300Z,13
2023-04-11T14:05:17.549Z,12
2023-04-11T14:10:17.381Z,13
2023-04-11T14:15:18.011Z,13
2023-04-11T14:20:17.372Z,15
2023-04-11T14:25:17.438Z,14
2023-04-11T14:30:17.394Z,15
2023-04-11T14:35:17.682Z,14
2023-04-11T14:40:17.526Z,15
2023-04-11T14:45:17.621Z,14
2023-04-11T14:50:17.623Z,17
2023-04-11T14:55:17.522Z,16
2023-04-11T15:00:17.384Z,15
2023-04-11T15:05:17.546Z,13
2023-04-11T15:10:17.471Z,13
2023-04-11T15:15:17.730Z,14
2023-04-11T15:20:17.485Z,12
2023-04-11T15:25:17.826Z,15
2023-04-11T15:30:17.577Z,15
2023-04-11T15:35:17.578Z,16
2023-04-11T15:40:17.462Z,14
2023-04-11T15:45:18.173Z,16
2023-04-11T15:50:17.683Z,17
2023-04-11T15:55:17.554Z,17
2023-04-11T16:00:17.783Z,15
2023-04-11T16:05:17.884Z,14
2023-04-11T16:10:17.555Z,14
2023-04-11T16:15:17.793Z,14
2023-04-11T16:20:17.684Z,14
2023-04-11T16:25:18.016Z,14
2023-04-11T16:30:17.663Z,12
2023-04-11T16:35:17.864Z,12
2023-04-11T16:40:17.803Z,12
2023-04-11T16:45:17.775Z,13
2023-04-11T16:50:17.722Z,10
2023-04-11T16:55:18.273Z,11
2023-04-11T17:00:17.977Z,14
2023-04-11T17:05:17.883Z,13
2023-04-11T17:10:17.785Z,12
2023-04-11T17:15:18.152Z,16
2023-04-11T17:20:17.794Z,16
2023-04-11T17:25:17.881Z,15
2023-04-11T17:30:17.857Z,15
2023-04-11T17:35:18.087Z,14
2023-04-11T17:40:17.878Z,15
2023-04-11T17:45:18.758Z,14
2023-04-11T17:50:17.835Z,19
2023-04-11T17:55:18.400Z,19
2023-04-11T18:00:17.911Z,15
2023-04-11T18:05:23.850Z,14
2023-04-11T18:10:18.163Z,18
2023-04-11T18:15:18.162Z,18
2023-04-11T18:20:17.883Z,15
2023-04-11T18:25:17.976Z,11
2023-04-11T18:30:18.166Z,11
2023-04-11T18:35:18.300Z,8
2023-04-11T18:40:18.575Z,14
2023-04-11T18:45:18.298Z,18
2023-04-11T18:50:18.216Z,21
2023-04-11T18:55:18.084Z,18
2023-04-11T19:00:19.444Z,18
2023-04-11T19:05:19.111Z,20
2023-04-11T19:10:18.074Z,20
2023-04-11T19:15:18.504Z,20
2023-04-11T19:20:18.201Z,28
2023-04-11T19:25:18.182Z,22
2023-04-11T19:30:18.132Z,21
2023-04-11T19:35:18.207Z,19
2023-04-11T19:40:18.133Z,19
2023-04-11T19:45:18.444Z,18
2023-04-11T19:50:18.130Z,22
2023-04-11T19:55:18.611Z,22
2023-04-11T20:00:18.393Z,24
2023-04-11T20:05:18.275Z,25
2023-04-11T20:10:18.151Z,25
2023-04-11T20:15:16.549Z,23
2023-04-11T20:20:16.209Z,22
2023-04-11T20:25:16.654Z,23
2023-04-11T20:30:16.456Z,24
2023-04-11T20:35:16.405Z,24
2023-04-11T20:40:16.328Z,30
2023-04-11T20:45:16.452Z,30
2023-04-11T20:50:16.213Z,27
2023-04-11T20:55:16.498Z,25
2023-04-11T21:00:17.381Z,26
2023-04-11T21:05:16.358Z,27
2023-04-11T21:10:16.421Z,24
2023-04-11T21:15:16.428Z,25
2023-04-11T21:20:16.416Z,21
2023-04-11T21:25:16.566Z,21
2023-04-11T21:30:16.420Z,23
2023-04-11T21:35:16.775Z,30
2023-04-11T21:40:16.420Z,23
2023-04-11T21:45:16.739Z,22
2023-04-11T21:50:16.439Z,27
2023-04-11T21:55:16.548Z,25
2023-04-11T22:00:16.465Z,26
2023-04-11T22:05:16.605Z,28
2023-04-11T22:10:16.649Z,20
2023-04-11T22:15:16.808Z,16
2023-04-11T22:20:16.646Z,21
2023-04-11T22:25:16.566Z,21
2023-04-11T22:30:16.534Z,29
2023-04-11T22:35:16.688Z,22
2023-04-11T22:40:16.565Z,22
2023-04-11T22:45:17.265Z,21
2023-04-11T22:50:16.693Z,21
2023-04-11T22:55:16.632Z,28
2023-04-11T23:00:16.841Z,19
2023-04-11T23:05:16.630Z,19
2023-04-11T23:10:16.625Z,19
2023-04-11T23:15:16.900Z,21
2023-04-11T23:20:16.819Z,25
2023-04-11T23:25:16.898Z,21
2023-04-11T23:30:16.993Z,22
2023-04-11T23:35:17.099Z,21
2023-04-11T23:40:16.636Z,23
2023-04-11T23:45:16.845Z,24
2023-04-11T23:50:16.683Z,24
2023-04-11T23:55:17.252Z,22
